sensor_id;sensor_type;location;lat;lon;timestamp;temperature;humidity
28614;DHT22;15806;53.548;9.964;2023-07-28T00:00:15;24.20;99.90
28614;DHT22;15806;53.548;9.964;2023-07-28T00:01:56;23.20;99.90
28614;DHT22;15806;53.548;9.964;2023-07-28T00:03:36;24.30;99.90
28614;DHT22;15806;53.548;9.964;2023-07-28T00:05:17;23.60;99.90
28614;DHT22;15806;53.548;9.964;2023-07-28T00:06:57;23.10;99.90
28614;DHT22;15806;53.548;9.964;2023-07-28T00:08:38;23.00;99.90
28614;DHT22;15806;53.548;9.964;2023-07-28T00:10:18;22.80;99.90
28614;DHT22;15806;53.548;9.964;2023-07-28T00:12:00;23.40;99.90
28614;DHT22;15806;53.548;9.964;2023-07-28T00:13:40;24.70;99.90
28614;DHT22;15806;53.548;9.964;2023-07-28T00:15:21;24.70;99.90
28614;DHT22;15806;53.548;9.964;2023-07-28T00:17:02;23.30;99.90
28614;DHT22;15806;53.548;9.964;2023-07-28T00:18:42;24.80;99.90
28614;DHT22;15806;53.548;9.964;2023-07-28T00:20:23;23.50;99.90
28614;DHT22;15806;53.548;9.964;2023-07-28T00:22:03;24.70;99.90
28614;DHT22;15806;53.548;9.964;2023-07-28T00:23:44;24.70;99.90
28614;DHT22;15806;53.548;9.964;2023-07-28T00:25:24;23.00;99.90
28614;DHT22;15806;53.548;9.964;2023-07-28T00:27:05;23.20;99.90
28614;DHT22;15806;53.548;9.964;2023-07-28T00:28:46;24.30;99.90
28614;DHT22;15806;53.548;9.964;2023-07-28T00:30:26;24.80;99.90
28614;DHT22;15806;53.548;9.964;2023-07-28T00:32:07;23.20;99.90
28614;DHT22;15806;53.548;9.964;2023-07-28T00:33:47;23.40;99.90
28614;DHT22;15806;53.548;9.964;2023-07-28T00:35:28;25.00;99.90
28614;DHT22;15806;53.548;9.964;2023-07-28T00:37:08;24.90;99.90
28614;DHT22;15806;53.548;9.964;2023-07-28T00:38:49;24.40;99.90
28614;DHT22;15806;53.548;9.964;2023-07-28T00:40:29;23.20;99.90
28614;DHT22;15806;53.548;9.964;2023-07-28T00:42:10;24.90;99.90
28614;DHT22;15806;53.548;9.964;2023-07-28T00:43:50;25.00;99.90
28614;DHT22;15806;53.548;9.964;2023-07-28T00:45:31;23.20;99.90
28614;DHT22;15806;53.548;9.964;2023-07-28T00:47:13;25.00;99.90
28614;DHT22;15806;53.548;9.964;2023-07-28T00:48:53;24.60;99.90
28614;DHT22;15806;53.548;9.964;2023-07-28T00:50:35;25.10;99.90
28614;DHT22;15806;53.548;9.964;2023-07-28T00:52:15;24.30;99.90
28614;DHT22;15806;53.548;9.964;2023-07-28T00:53:56;25.10;99.90
28614;DHT22;15806;53.548;9.964;2023-07-28T00:55:37;25.10;99.90
28614;DHT22;15806;53.548;9.964;2023-07-28T00:57:18;23.70;99.90
28614;DHT22;15806;53.548;9.964;2023-07-28T00:58:58;25.10;99.90
28614;DHT22;15806;53.548;9.964;2023-07-28T01:00:39;24.80;99.90
28614;DHT22;15806;53.548;9.964;2023-07-28T01:02:20;24.70;99.90
28614;DHT22;15806;53.548;9.964;2023-07-28T01:04:01;23.80;99.90
28614;DHT22;15806;53.548;9.964;2023-07-28T01:06:06;24.90;99.90
28614;DHT22;15806;53.548;9.964;2023-07-28T01:07:56;24.80;99.90
28614;DHT22;15806;53.548;9.964;2023-07-28T01:10:11;24.90;99.90
28614;DHT22;15806;53.548;9.964;2023-07-28T01:11:54;23.40;99.90
28614;DHT22;15806;53.548;9.964;2023-07-28T01:13:35;23.70;99.90
28614;DHT22;15806;53.548;9.964;2023-07-28T01:15:15;24.60;99.90
28614;DHT22;15806;53.548;9.964;2023-07-28T01:16:56;23.90;99.90
28614;DHT22;15806;53.548;9.964;2023-07-28T01:18:36;24.10;99.90
28614;DHT22;15806;53.548;9.964;2023-07-28T01:20:17;23.60;99.90
28614;DHT22;15806;53.548;9.964;2023-07-28T01:26:08;25.20;99.90
28614;DHT22;15806;53.548;9.964;2023-07-28T01:27:50;25.00;99.90
28614;DHT22;15806;53.548;9.964;2023-07-28T01:29:32;25.10;99.90
28614;DHT22;15806;53.548;9.964;2023-07-28T01:31:12;25.00;99.90
28614;DHT22;15806;53.548;9.964;2023-07-28T01:32:57;24.60;99.90
28614;DHT22;15806;53.548;9.964;2023-07-28T01:34:37;25.20;99.90
28614;DHT22;15806;53.548;9.964;2023-07-28T01:36:17;25.20;99.90
28614;DHT22;15806;53.548;9.964;2023-07-28T01:37:58;25.10;99.90
28614;DHT22;15806;53.548;9.964;2023-07-28T01:39:38;24.80;99.90
28614;DHT22;15806;53.548;9.964;2023-07-28T01:41:19;23.70;99.90
28614;DHT22;15806;53.548;9.964;2023-07-28T01:42:59;23.90;99.90
28614;DHT22;15806;53.548;9.964;2023-07-28T01:44:40;24.00;99.90
28614;DHT22;15806;53.548;9.964;2023-07-28T01:46:21;25.20;99.90
28614;DHT22;15806;53.548;9.964;2023-07-28T01:48:01;25.20;99.90
28614;DHT22;15806;53.548;9.964;2023-07-28T01:49:42;24.30;99.90
28614;DHT22;15806;53.548;9.964;2023-07-28T01:51:22;25.10;99.90
28614;DHT22;15806;53.548;9.964;2023-07-28T01:53:04;24.80;99.90
28614;DHT22;15806;53.548;9.964;2023-07-28T01:54:45;25.20;99.90
28614;DHT22;15806;53.548;9.964;2023-07-28T01:56:25;24.20;99.90
28614;DHT22;15806;53.548;9.964;2023-07-28T01:58:06;24.70;99.90
28614;DHT22;15806;53.548;9.964;2023-07-28T01:59:46;24.50;99.90
28614;DHT22;15806;53.548;9.964;2023-07-28T02:01:27;24.50;99.90
28614;DHT22;15806;53.548;9.964;2023-07-28T02:03:07;25.20;99.90
28614;DHT22;15806;53.548;9.964;2023-07-28T02:04:48;25.00;99.90
28614;DHT22;15806;53.548;9.964;2023-07-28T02:06:29;25.00;99.90
28614;DHT22;15806;53.548;9.964;2023-07-28T02:08:09;24.50;99.90
28614;DHT22;15806;53.548;9.964;2023-07-28T02:09:50;24.20;99.90
28614;DHT22;15806;53.548;9.964;2023-07-28T02:11:30;25.20;99.90
28614;DHT22;15806;53.548;9.964;2023-07-28T02:13:11;24.80;99.90
28614;DHT22;15806;53.548;9.964;2023-07-28T02:14:51;24.40;99.90
28614;DHT22;15806;53.548;9.964;2023-07-28T02:16:32;23.90;99.90
28614;DHT22;15806;53.548;9.964;2023-07-28T02:18:12;24.80;99.90
28614;DHT22;15806;53.548;9.964;2023-07-28T02:19:53;24.20;99.90
28614;DHT22;15806;53.548;9.964;2023-07-28T02:21:33;25.00;99.90
28614;DHT22;15806;53.548;9.964;2023-07-28T02:23:14;25.20;99.90
28614;DHT22;15806;53.548;9.964;2023-07-28T02:24:54;24.20;99.90
28614;DHT22;15806;53.548;9.964;2023-07-28T02:26:35;23.70;99.90
28614;DHT22;15806;53.548;9.964;2023-07-28T02:28:15;25.30;99.90
28614;DHT22;15806;53.548;9.964;2023-07-28T02:29:56;25.00;99.90
28614;DHT22;15806;53.548;9.964;2023-07-28T02:31:36;24.10;99.90
28614;DHT22;15806;53.548;9.964;2023-07-28T02:33:17;23.80;99.90
28614;DHT22;15806;53.548;9.964;2023-07-28T02:34:58;25.30;99.90
28614;DHT22;15806;53.548;9.964;2023-07-28T02:36:38;24.90;99.90
28614;DHT22;15806;53.548;9.964;2023-07-28T02:38:19;25.30;99.90
28614;DHT22;15806;53.548;9.964;2023-07-28T02:39:59;25.20;99.90
28614;DHT22;15806;53.548;9.964;2023-07-28T02:41:40;24.50;99.90
28614;DHT22;15806;53.548;9.964;2023-07-28T02:43:20;24.90;99.90
28614;DHT22;15806;53.548;9.964;2023-07-28T02:45:02;24.70;99.90
28614;DHT22;15806;53.548;9.964;2023-07-28T02:46:42;25.30;99.90
28614;DHT22;15806;53.548;9.964;2023-07-28T02:48:23;25.30;99.90
28614;DHT22;15806;53.548;9.964;2023-07-28T02:50:04;23.80;99.90
28614;DHT22;15806;53.548;9.964;2023-07-28T02:51:45;25.10;99.90
28614;DHT22;15806;53.548;9.964;2023-07-28T02:53:25;23.70;99.90
28614;DHT22;15806;53.548;9.964;2023-07-28T02:55:06;24.70;99.90
28614;DHT22;15806;53.548;9.964;2023-07-28T02:56:46;25.00;99.90
28614;DHT22;15806;53.548;9.964;2023-07-28T02:58:27;24.90;99.90
28614;DHT22;15806;53.548;9.964;2023-07-28T03:00:08;24.30;99.90
28614;DHT22;15806;53.548;9.964;2023-07-28T03:01:48;24.30;99.90
28614;DHT22;15806;53.548;9.964;2023-07-28T03:03:29;24.50;99.90
28614;DHT22;15806;53.548;9.964;2023-07-28T03:05:09;23.80;99.90
28614;DHT22;15806;53.548;9.964;2023-07-28T03:06:50;23.90;99.90
28614;DHT22;15806;53.548;9.964;2023-07-28T03:08:31;24.10;99.90
28614;DHT22;15806;53.548;9.964;2023-07-28T03:10:12;24.90;99.90
28614;DHT22;15806;53.548;9.964;2023-07-28T03:11:53;25.10;99.90
28614;DHT22;15806;53.548;9.964;2023-07-28T03:13:33;25.10;99.90
28614;DHT22;15806;53.548;9.964;2023-07-28T03:15:14;25.10;99.90
28614;DHT22;15806;53.548;9.964;2023-07-28T03:16:54;24.60;99.90
28614;DHT22;15806;53.548;9.964;2023-07-28T03:18:35;24.50;99.90
28614;DHT22;15806;53.548;9.964;2023-07-28T03:20:15;23.90;99.90
28614;DHT22;15806;53.548;9.964;2023-07-28T03:21:56;24.30;99.90
28614;DHT22;15806;53.548;9.964;2023-07-28T03:23:37;23.70;99.90
28614;DHT22;15806;53.548;9.964;2023-07-28T03:25:17;24.50;99.90
28614;DHT22;15806;53.548;9.964;2023-07-28T03:26:58;24.90;99.90
28614;DHT22;15806;53.548;9.964;2023-07-28T03:28:38;24.10;99.90
28614;DHT22;15806;53.548;9.964;2023-07-28T03:30:19;24.80;99.90
28614;DHT22;15806;53.548;9.964;2023-07-28T03:31:59;25.10;99.90
28614;DHT22;15806;53.548;9.964;2023-07-28T03:33:40;23.80;99.90
28614;DHT22;15806;53.548;9.964;2023-07-28T03:35:20;25.10;99.90
28614;DHT22;15806;53.548;9.964;2023-07-28T03:37:01;23.70;99.90
28614;DHT22;15806;53.548;9.964;2023-07-28T03:38:41;24.40;99.90
28614;DHT22;15806;53.548;9.964;2023-07-28T03:40:22;25.20;99.90
28614;DHT22;15806;53.548;9.964;2023-07-28T03:42:02;24.20;99.90
28614;DHT22;15806;53.548;9.964;2023-07-28T03:43:43;24.40;99.90
28614;DHT22;15806;53.548;9.964;2023-07-28T03:45:23;24.00;99.90
28614;DHT22;15806;53.548;9.964;2023-07-28T03:47:04;25.20;99.90
28614;DHT22;15806;53.548;9.964;2023-07-28T03:48:45;24.30;99.90
28614;DHT22;15806;53.548;9.964;2023-07-28T03:50:25;24.30;99.90
28614;DHT22;15806;53.548;9.964;2023-07-28T03:52:06;23.80;99.90
28614;DHT22;15806;53.548;9.964;2023-07-28T03:53:46;23.70;99.90
28614;DHT22;15806;53.548;9.964;2023-07-28T03:55:27;24.30;99.90
28614;DHT22;15806;53.548;9.964;2023-07-28T03:57:08;23.60;99.90
28614;DHT22;15806;53.548;9.964;2023-07-28T03:58:49;25.20;99.90
28614;DHT22;15806;53.548;9.964;2023-07-28T04:00:30;25.20;99.90
28614;DHT22;15806;53.548;9.964;2023-07-28T04:02:11;25.20;99.90
28614;DHT22;15806;53.548;9.964;2023-07-28T04:03:51;23.80;99.90
28614;DHT22;15806;53.548;9.964;2023-07-28T04:05:32;23.70;99.90
28614;DHT22;15806;53.548;9.964;2023-07-28T04:07:12;24.30;99.90
28614;DHT22;15806;53.548;9.964;2023-07-28T04:08:53;25.00;99.90
28614;DHT22;15806;53.548;9.964;2023-07-28T04:10:33;25.20;99.90
28614;DHT22;15806;53.548;9.964;2023-07-28T04:12:14;24.20;99.90
28614;DHT22;15806;53.548;9.964;2023-07-28T04:13:54;24.20;99.90
28614;DHT22;15806;53.548;9.964;2023-07-28T04:15:35;25.10;99.90
28614;DHT22;15806;53.548;9.964;2023-07-28T04:17:15;24.70;99.90
28614;DHT22;15806;53.548;9.964;2023-07-28T04:18:56;24.20;99.90
28614;DHT22;15806;53.548;9.964;2023-07-28T04:20:37;24.80;99.90
28614;DHT22;15806;53.548;9.964;2023-07-28T04:22:18;24.10;99.90
28614;DHT22;15806;53.548;9.964;2023-07-28T04:23:58;24.30;99.90
28614;DHT22;15806;53.548;9.964;2023-07-28T04:25:39;24.70;99.90
28614;DHT22;15806;53.548;9.964;2023-07-28T04:27:19;25.30;99.90
28614;DHT22;15806;53.548;9.964;2023-07-28T04:29:00;23.90;99.90
28614;DHT22;15806;53.548;9.964;2023-07-28T04:30:40;24.00;99.90
28614;DHT22;15806;53.548;9.964;2023-07-28T04:32:21;23.90;99.90
28614;DHT22;15806;53.548;9.964;2023-07-28T04:34:02;25.10;99.90
28614;DHT22;15806;53.548;9.964;2023-07-28T04:35:42;23.80;99.90
28614;DHT22;15806;53.548;9.964;2023-07-28T04:37:23;24.80;99.90
28614;DHT22;15806;53.548;9.964;2023-07-28T04:39:03;24.60;99.90
28614;DHT22;15806;53.548;9.964;2023-07-28T04:40:44;25.00;99.90
28614;DHT22;15806;53.548;9.964;2023-07-28T04:42:25;24.60;99.90
28614;DHT22;15806;53.548;9.964;2023-07-28T04:44:05;25.20;99.90
28614;DHT22;15806;53.548;9.964;2023-07-28T04:45:46;23.90;99.90
28614;DHT22;15806;53.548;9.964;2023-07-28T04:47:26;24.00;99.90
28614;DHT22;15806;53.548;9.964;2023-07-28T04:49:07;24.50;99.90
28614;DHT22;15806;53.548;9.964;2023-07-28T04:50:47;24.80;99.90
28614;DHT22;15806;53.548;9.964;2023-07-28T04:52:28;25.20;99.90
28614;DHT22;15806;53.548;9.964;2023-07-28T04:54:08;24.70;99.90
28614;DHT22;15806;53.548;9.964;2023-07-28T04:55:49;25.20;99.90
28614;DHT22;15806;53.548;9.964;2023-07-28T04:57:29;25.30;99.90
28614;DHT22;15806;53.548;9.964;2023-07-28T04:59:10;25.30;99.90
28614;DHT22;15806;53.548;9.964;2023-07-28T05:00:50;25.40;99.90
28614;DHT22;15806;53.548;9.964;2023-07-28T05:02:31;25.30;99.90
28614;DHT22;15806;53.548;9.964;2023-07-28T05:04:11;24.60;99.90
28614;DHT22;15806;53.548;9.964;2023-07-28T05:05:52;25.40;99.90
28614;DHT22;15806;53.548;9.964;2023-07-28T05:07:32;24.20;99.90
28614;DHT22;15806;53.548;9.964;2023-07-28T05:09:12;25.40;99.90
28614;DHT22;15806;53.548;9.964;2023-07-28T05:10:53;25.50;99.90
28614;DHT22;15806;53.548;9.964;2023-07-28T05:12:33;25.60;99.90
28614;DHT22;15806;53.548;9.964;2023-07-28T05:14:14;25.60;99.90
28614;DHT22;15806;53.548;9.964;2023-07-28T05:15:54;25.60;99.90
28614;DHT22;15806;53.548;9.964;2023-07-28T05:17:35;24.30;99.90
28614;DHT22;15806;53.548;9.964;2023-07-28T05:19:16;25.80;99.90
28614;DHT22;15806;53.548;9.964;2023-07-28T05:20:56;25.60;99.90
28614;DHT22;15806;53.548;9.964;2023-07-28T05:22:37;24.80;99.90
28614;DHT22;15806;53.548;9.964;2023-07-28T05:24:17;25.30;99.90
28614;DHT22;15806;53.548;9.964;2023-07-28T05:25:58;24.80;99.90
28614;DHT22;15806;53.548;9.964;2023-07-28T05:27:39;25.30;99.90
28614;DHT22;15806;53.548;9.964;2023-07-28T05:29:20;25.00;99.90
28614;DHT22;15806;53.548;9.964;2023-07-28T05:31:05;25.00;99.90
28614;DHT22;15806;53.548;9.964;2023-07-28T05:32:46;25.80;99.90
28614;DHT22;15806;53.548;9.964;2023-07-28T05:34:27;24.70;99.90
28614;DHT22;15806;53.548;9.964;2023-07-28T05:36:07;25.40;99.90
28614;DHT22;15806;53.548;9.964;2023-07-28T05:37:48;25.90;99.90
28614;DHT22;15806;53.548;9.964;2023-07-28T05:39:28;25.90;99.90
28614;DHT22;15806;53.548;9.964;2023-07-28T05:41:09;25.60;99.90
28614;DHT22;15806;53.548;9.964;2023-07-28T05:42:49;25.60;99.90
28614;DHT22;15806;53.548;9.964;2023-07-28T05:44:30;24.60;99.90
28614;DHT22;15806;53.548;9.964;2023-07-28T05:46:10;24.90;99.90
28614;DHT22;15806;53.548;9.964;2023-07-28T05:47:51;24.50;99.90
28614;DHT22;15806;53.548;9.964;2023-07-28T05:49:31;25.10;99.90
28614;DHT22;15806;53.548;9.964;2023-07-28T05:51:12;24.60;99.90
28614;DHT22;15806;53.548;9.964;2023-07-28T05:52:52;25.40;99.90
28614;DHT22;15806;53.548;9.964;2023-07-28T05:54:33;25.60;99.90
28614;DHT22;15806;53.548;9.964;2023-07-28T05:56:13;25.90;99.90
28614;DHT22;15806;53.548;9.964;2023-07-28T05:57:54;25.20;99.90
28614;DHT22;15806;53.548;9.964;2023-07-28T05:59:34;25.00;99.90
28614;DHT22;15806;53.548;9.964;2023-07-28T06:01:15;25.90;99.90
28614;DHT22;15806;53.548;9.964;2023-07-28T06:02:56;26.00;99.90
28614;DHT22;15806;53.548;9.964;2023-07-28T06:04:36;25.50;99.90
28614;DHT22;15806;53.548;9.964;2023-07-28T06:06:17;25.40;99.90
28614;DHT22;15806;53.548;9.964;2023-07-28T06:07:58;25.40;99.90
28614;DHT22;15806;53.548;9.964;2023-07-28T06:09:38;26.20;99.90
28614;DHT22;15806;53.548;9.964;2023-07-28T06:11:20;25.70;99.90
28614;DHT22;15806;53.548;9.964;2023-07-28T06:13:01;25.90;99.90
28614;DHT22;15806;53.548;9.964;2023-07-28T06:14:41;25.20;99.90
28614;DHT22;15806;53.548;9.964;2023-07-28T06:16:22;25.00;99.90
28614;DHT22;15806;53.548;9.964;2023-07-28T06:18:02;25.80;99.90
28614;DHT22;15806;53.548;9.964;2023-07-28T06:19:43;26.10;99.90
28614;DHT22;15806;53.548;9.964;2023-07-28T06:21:23;25.70;99.90
28614;DHT22;15806;53.548;9.964;2023-07-28T06:23:04;26.00;99.90
28614;DHT22;15806;53.548;9.964;2023-07-28T06:24:44;25.90;99.90
28614;DHT22;15806;53.548;9.964;2023-07-28T06:26:25;25.30;99.90
28614;DHT22;15806;53.548;9.964;2023-07-28T06:28:05;26.10;99.90
28614;DHT22;15806;53.548;9.964;2023-07-28T06:29:46;25.80;99.90
28614;DHT22;15806;53.548;9.964;2023-07-28T06:31:26;25.40;99.90
28614;DHT22;15806;53.548;9.964;2023-07-28T06:33:07;25.70;99.90
28614;DHT22;15806;53.548;9.964;2023-07-28T06:34:48;25.40;99.90
28614;DHT22;15806;53.548;9.964;2023-07-28T06:36:28;25.30;99.90
28614;DHT22;15806;53.548;9.964;2023-07-28T06:38:09;24.90;99.90
28614;DHT22;15806;53.548;9.964;2023-07-28T06:39:49;25.00;99.90
28614;DHT22;15806;53.548;9.964;2023-07-28T06:41:30;25.40;99.90
28614;DHT22;15806;53.548;9.964;2023-07-28T06:43:10;24.80;99.90
28614;DHT22;15806;53.548;9.964;2023-07-28T06:44:51;25.30;99.90
28614;DHT22;15806;53.548;9.964;2023-07-28T06:46:31;25.00;99.90
28614;DHT22;15806;53.548;9.964;2023-07-28T06:48:12;25.00;99.90
28614;DHT22;15806;53.548;9.964;2023-07-28T06:49:52;24.90;99.90
28614;DHT22;15806;53.548;9.964;2023-07-28T06:51:33;25.20;99.90
28614;DHT22;15806;53.548;9.964;2023-07-28T06:53:13;25.50;99.90
28614;DHT22;15806;53.548;9.964;2023-07-28T06:54:54;25.30;99.90
28614;DHT22;15806;53.548;9.964;2023-07-28T06:56:34;25.70;99.90
28614;DHT22;15806;53.548;9.964;2023-07-28T06:58:15;25.60;99.90
28614;DHT22;15806;53.548;9.964;2023-07-28T06:59:56;25.70;99.90
28614;DHT22;15806;53.548;9.964;2023-07-28T07:01:36;25.40;99.90
28614;DHT22;15806;53.548;9.964;2023-07-28T07:03:17;25.00;99.90
28614;DHT22;15806;53.548;9.964;2023-07-28T07:04:57;25.20;99.90
28614;DHT22;15806;53.548;9.964;2023-07-28T07:06:38;25.50;99.90
28614;DHT22;15806;53.548;9.964;2023-07-28T07:08:18;25.40;99.90
28614;DHT22;15806;53.548;9.964;2023-07-28T07:09:59;25.10;99.90
28614;DHT22;15806;53.548;9.964;2023-07-28T07:11:40;25.10;99.90
28614;DHT22;15806;53.548;9.964;2023-07-28T07:13:20;25.10;99.90
28614;DHT22;15806;53.548;9.964;2023-07-28T07:15:01;24.80;99.90
28614;DHT22;15806;53.548;9.964;2023-07-28T07:16:41;24.40;99.90
28614;DHT22;15806;53.548;9.964;2023-07-28T07:18:22;23.90;99.90
28614;DHT22;15806;53.548;9.964;2023-07-28T07:20:02;23.40;99.90
28614;DHT22;15806;53.548;9.964;2023-07-28T07:21:43;23.00;99.90
28614;DHT22;15806;53.548;9.964;2023-07-28T07:23:23;22.50;99.90
28614;DHT22;15806;53.548;9.964;2023-07-28T07:25:04;22.40;99.90
28614;DHT22;15806;53.548;9.964;2023-07-28T07:26:45;22.20;99.90
28614;DHT22;15806;53.548;9.964;2023-07-28T07:28:25;21.90;99.90
28614;DHT22;15806;53.548;9.964;2023-07-28T07:30:06;21.70;99.90
28614;DHT22;15806;53.548;9.964;2023-07-28T07:31:47;21.50;99.90
28614;DHT22;15806;53.548;9.964;2023-07-28T07:33:27;21.50;99.90
28614;DHT22;15806;53.548;9.964;2023-07-28T07:35:08;21.40;99.90
28614;DHT22;15806;53.548;9.964;2023-07-28T07:36:49;21.30;99.90
28614;DHT22;15806;53.548;9.964;2023-07-28T07:38:30;21.20;99.90
28614;DHT22;15806;53.548;9.964;2023-07-28T07:40:10;21.10;99.90
28614;DHT22;15806;53.548;9.964;2023-07-28T07:41:51;21.00;99.90
28614;DHT22;15806;53.548;9.964;2023-07-28T07:43:31;21.00;99.90
28614;DHT22;15806;53.548;9.964;2023-07-28T07:45:13;20.90;99.90
28614;DHT22;15806;53.548;9.964;2023-07-28T07:46:54;21.00;99.90
28614;DHT22;15806;53.548;9.964;2023-07-28T07:48:35;20.90;99.90
28614;DHT22;15806;53.548;9.964;2023-07-28T07:50:15;20.80;99.90
28614;DHT22;15806;53.548;9.964;2023-07-28T07:51:56;20.80;99.90
28614;DHT22;15806;53.548;9.964;2023-07-28T07:53:36;20.80;99.90
28614;DHT22;15806;53.548;9.964;2023-07-28T07:55:17;20.80;99.90
28614;DHT22;15806;53.548;9.964;2023-07-28T07:56:57;20.90;99.90
28614;DHT22;15806;53.548;9.964;2023-07-28T07:58:38;20.90;99.90
28614;DHT22;15806;53.548;9.964;2023-07-28T08:00:19;20.80;99.90
28614;DHT22;15806;53.548;9.964;2023-07-28T08:02:00;20.70;99.90
28614;DHT22;15806;53.548;9.964;2023-07-28T08:03:40;20.70;99.90
28614;DHT22;15806;53.548;9.964;2023-07-28T08:05:21;20.70;99.90
28614;DHT22;15806;53.548;9.964;2023-07-28T08:07:01;20.70;99.90
28614;DHT22;15806;53.548;9.964;2023-07-28T08:08:42;20.70;99.90
28614;DHT22;15806;53.548;9.964;2023-07-28T08:10:22;20.50;99.90
28614;DHT22;15806;53.548;9.964;2023-07-28T08:12:03;20.40;99.90
28614;DHT22;15806;53.548;9.964;2023-07-28T08:13:44;20.30;99.90
28614;DHT22;15806;53.548;9.964;2023-07-28T08:15:25;20.40;99.90
28614;DHT22;15806;53.548;9.964;2023-07-28T08:17:06;20.40;99.90
28614;DHT22;15806;53.548;9.964;2023-07-28T08:18:47;20.60;99.90
28614;DHT22;15806;53.548;9.964;2023-07-28T08:20:28;20.70;99.90
28614;DHT22;15806;53.548;9.964;2023-07-28T08:22:08;20.60;99.90
28614;DHT22;15806;53.548;9.964;2023-07-28T08:23:48;20.60;99.90
28614;DHT22;15806;53.548;9.964;2023-07-28T08:25:29;20.70;99.90
28614;DHT22;15806;53.548;9.964;2023-07-28T08:27:09;20.40;99.90
28614;DHT22;15806;53.548;9.964;2023-07-28T08:28:50;20.40;99.90
28614;DHT22;15806;53.548;9.964;2023-07-28T08:30:30;20.50;99.90
28614;DHT22;15806;53.548;9.964;2023-07-28T08:32:11;20.50;99.90
28614;DHT22;15806;53.548;9.964;2023-07-28T08:33:51;20.60;99.90
28614;DHT22;15806;53.548;9.964;2023-07-28T08:35:32;20.80;99.90
28614;DHT22;15806;53.548;9.964;2023-07-28T08:37:12;20.80;99.90
28614;DHT22;15806;53.548;9.964;2023-07-28T08:38:53;20.90;99.90
28614;DHT22;15806;53.548;9.964;2023-07-28T08:40:36;20.80;99.90
28614;DHT22;15806;53.548;9.964;2023-07-28T08:42:16;20.80;99.90
28614;DHT22;15806;53.548;9.964;2023-07-28T08:43:57;20.80;99.90
28614;DHT22;15806;53.548;9.964;2023-07-28T08:45:38;20.60;99.90
28614;DHT22;15806;53.548;9.964;2023-07-28T08:47:18;20.20;99.90
28614;DHT22;15806;53.548;9.964;2023-07-28T08:48:59;20.20;99.90
28614;DHT22;15806;53.548;9.964;2023-07-28T08:50:39;20.30;99.90
28614;DHT22;15806;53.548;9.964;2023-07-28T08:52:20;20.40;99.90
28614;DHT22;15806;53.548;9.964;2023-07-28T08:54:00;20.50;99.90
28614;DHT22;15806;53.548;9.964;2023-07-28T08:55:41;20.60;99.90
28614;DHT22;15806;53.548;9.964;2023-07-28T08:57:21;20.40;99.90
28614;DHT22;15806;53.548;9.964;2023-07-28T08:59:02;20.30;99.90
28614;DHT22;15806;53.548;9.964;2023-07-28T09:00:42;20.30;99.90
28614;DHT22;15806;53.548;9.964;2023-07-28T09:02:23;20.30;99.90
28614;DHT22;15806;53.548;9.964;2023-07-28T09:04:09;20.50;99.90
28614;DHT22;15806;53.548;9.964;2023-07-28T09:05:50;20.60;99.90
28614;DHT22;15806;53.548;9.964;2023-07-28T09:07:37;20.40;99.90
28614;DHT22;15806;53.548;9.964;2023-07-28T09:09:20;20.90;99.90
28614;DHT22;15806;53.548;9.964;2023-07-28T09:11:05;21.30;99.90
28614;DHT22;15806;53.548;9.964;2023-07-28T09:12:47;21.10;99.90
28614;DHT22;15806;53.548;9.964;2023-07-28T09:14:29;21.10;99.90
28614;DHT22;15806;53.548;9.964;2023-07-28T09:16:17;21.20;99.90
28614;DHT22;15806;53.548;9.964;2023-07-28T09:18:00;21.10;99.90
28614;DHT22;15806;53.548;9.964;2023-07-28T09:19:54;21.00;99.90
28614;DHT22;15806;53.548;9.964;2023-07-28T09:21:35;21.10;99.90
28614;DHT22;15806;53.548;9.964;2023-07-28T09:23:16;21.10;99.90
28614;DHT22;15806;53.548;9.964;2023-07-28T09:24:56;21.10;99.90
28614;DHT22;15806;53.548;9.964;2023-07-28T09:26:44;21.10;99.90
28614;DHT22;15806;53.548;9.964;2023-07-28T09:28:38;21.10;99.90
28614;DHT22;15806;53.548;9.964;2023-07-28T09:30:19;21.10;99.90
28614;DHT22;15806;53.548;9.964;2023-07-28T09:32:06;21.10;99.90
28614;DHT22;15806;53.548;9.964;2023-07-28T09:33:47;21.10;99.90
28614;DHT22;15806;53.548;9.964;2023-07-28T09:35:27;20.90;99.90
28614;DHT22;15806;53.548;9.964;2023-07-28T09:37:09;20.80;99.90
28614;DHT22;15806;53.548;9.964;2023-07-28T09:38:50;20.70;99.90
28614;DHT22;15806;53.548;9.964;2023-07-28T09:40:31;20.70;99.90
28614;DHT22;15806;53.548;9.964;2023-07-28T09:42:13;20.70;99.90
28614;DHT22;15806;53.548;9.964;2023-07-28T09:43:54;20.70;99.90
28614;DHT22;15806;53.548;9.964;2023-07-28T09:45:35;20.70;99.90
28614;DHT22;15806;53.548;9.964;2023-07-28T09:47:16;20.80;99.90
28614;DHT22;15806;53.548;9.964;2023-07-28T09:48:59;20.70;99.90
28614;DHT22;15806;53.548;9.964;2023-07-28T09:50:40;20.70;99.90
28614;DHT22;15806;53.548;9.964;2023-07-28T09:52:23;20.70;99.90
28614;DHT22;15806;53.548;9.964;2023-07-28T09:54:07;20.70;99.90
28614;DHT22;15806;53.548;9.964;2023-07-28T09:55:51;20.70;99.90
28614;DHT22;15806;53.548;9.964;2023-07-28T09:57:36;20.60;99.90
28614;DHT22;15806;53.548;9.964;2023-07-28T09:59:17;20.60;99.90
28614;DHT22;15806;53.548;9.964;2023-07-28T10:00:58;20.60;99.90
28614;DHT22;15806;53.548;9.964;2023-07-28T10:02:40;20.60;99.90
28614;DHT22;15806;53.548;9.964;2023-07-28T10:04:20;20.60;99.90
28614;DHT22;15806;53.548;9.964;2023-07-28T10:06:01;20.60;99.90
28614;DHT22;15806;53.548;9.964;2023-07-28T10:07:47;20.60;99.90
28614;DHT22;15806;53.548;9.964;2023-07-28T10:09:30;20.60;99.90
28614;DHT22;15806;53.548;9.964;2023-07-28T10:11:12;20.60;99.90
28614;DHT22;15806;53.548;9.964;2023-07-28T10:12:54;20.60;99.90
28614;DHT22;15806;53.548;9.964;2023-07-28T10:14:36;20.70;99.90
28614;DHT22;15806;53.548;9.964;2023-07-28T10:16:16;20.70;99.90
28614;DHT22;15806;53.548;9.964;2023-07-28T10:17:57;20.70;99.90
28614;DHT22;15806;53.548;9.964;2023-07-28T10:19:39;20.70;99.90
28614;DHT22;15806;53.548;9.964;2023-07-28T10:21:20;20.70;99.90
28614;DHT22;15806;53.548;9.964;2023-07-28T10:23:05;20.80;99.90
28614;DHT22;15806;53.548;9.964;2023-07-28T10:24:57;20.80;99.90
28614;DHT22;15806;53.548;9.964;2023-07-28T10:26:41;20.80;99.90
28614;DHT22;15806;53.548;9.964;2023-07-28T10:28:29;20.80;99.90
28614;DHT22;15806;53.548;9.964;2023-07-28T10:30:13;21.00;99.90
28614;DHT22;15806;53.548;9.964;2023-07-28T10:31:55;21.00;99.90
28614;DHT22;15806;53.548;9.964;2023-07-28T10:33:48;21.20;99.90
28614;DHT22;15806;53.548;9.964;2023-07-28T10:35:29;21.20;99.90
28614;DHT22;15806;53.548;9.964;2023-07-28T10:37:14;21.20;99.90
28614;DHT22;15806;53.548;9.964;2023-07-28T10:39:13;21.20;99.90
28614;DHT22;15806;53.548;9.964;2023-07-28T10:41:09;21.20;99.90
28614;DHT22;15806;53.548;9.964;2023-07-28T10:42:51;21.30;99.90